KPHN/PHN METAR and TAF weather

Enter ICAO airport designator
Station Type Date Time Source
KPHN METAR 2024/04/17 18:35 UTC NOAA

KPHN 171835Z AUTO 14008KT 10SM OVC023 16/11 A2970 RMK AO2


Station Type Date Time Source
KPHN Decoded METAR 2024/04/17 18:35 UTC NOAA

St. Clair County International, MI, United States (KPHN) 42-55N 082-32W
Apr 17, 2024 - 02:35 PM EDT / 2024.04.17 1835 UTC
Wind: from the SE (140 degrees) at 9 MPH (8 KT):0
Visibility: 10 mile(s):0
Sky conditions: overcast
Temperature: 60 F (16 C)
Dew Point: 51 F (11 C)
Relative Humidity: 72%
Pressure (altimeter): 29.7 in. Hg (1005 hPa)
ob: KPHN 171835Z AUTO 14008KT 10SM OVC023 16/11 A2970 RMK AO2
cycle: 18

Station Type Date Time Source
KPHN TAF UTC NOAA

Error!

Example: see airport list